createdAt,value
2018-08-31T00:01:39.181Z,2.23
2018-08-31T00:04:39.354Z,2.43
2018-08-31T00:07:13.307Z,2.57
2018-08-31T00:09:46.854Z,2.70
2018-08-31T00:12:18.650Z,2.97
2018-08-31T00:14:45.909Z,2.30
2018-08-31T00:17:13.074Z,2.40
2018-08-31T00:19:40.267Z,3.23
2018-08-31T00:22:07.547Z,2.60
2018-08-31T00:24:40.462Z,2.83
2018-08-31T00:27:13.354Z,2.20
2018-08-31T00:29:50.522Z,2.77
2018-08-31T00:32:23.279Z,2.73
2018-08-31T00:35:30.458Z,3.03
2018-08-31T00:38:05.994Z,2.80
2018-08-31T00:41:38.779Z,2.40
2018-08-31T00:44:10.098Z,2.50
2018-08-31T00:46:37.266Z,2.33
2018-08-31T00:49:04.517Z,2.60
2018-08-31T00:51:31.685Z,3.30
2018-08-31T00:53:58.887Z,2.90
2018-08-31T00:56:26.071Z,2.70
2018-08-31T00:58:53.240Z,2.90
2018-08-31T01:01:20.419Z,2.30
2018-08-31T01:03:47.587Z,3.07
2018-08-31T01:06:14.770Z,2.70
2018-08-31T01:08:41.934Z,2.70
2018-08-31T01:11:09.143Z,2.97
2018-08-31T01:13:36.325Z,2.87
2018-08-31T01:16:03.537Z,2.60
2018-08-31T01:18:30.698Z,3.17
2018-08-31T01:20:57.903Z,2.40
2018-08-31T01:23:25.099Z,2.20
2018-08-31T01:25:52.279Z,2.80
2018-08-31T01:28:19.443Z,2.17
2018-08-31T01:30:46.640Z,2.50
2018-08-31T01:33:13.852Z,2.30
2018-08-31T01:35:41.003Z,2.50
2018-08-31T01:38:08.175Z,2.40
2018-08-31T01:40:35.354Z,3.23
2018-08-31T01:43:02.523Z,3.00
2018-08-31T01:45:29.707Z,2.77
2018-08-31T01:47:56.888Z,3.10
2018-08-31T01:50:24.060Z,3.07
2018-08-31T01:52:51.275Z,2.57
2018-08-31T01:55:22.779Z,2.60
2018-08-31T01:57:49.949Z,2.80
2018-08-31T02:00:17.119Z,2.53
2018-08-31T02:02:44.293Z,2.43
2018-08-31T02:05:11.467Z,3.30
2018-08-31T02:07:38.659Z,2.60
2018-08-31T02:10:05.842Z,3.10
2018-08-31T02:12:33.027Z,3.07
2018-08-31T02:15:00.194Z,2.80
2018-08-31T02:17:27.383Z,2.50
2018-08-31T02:19:54.557Z,2.87
2018-08-31T02:22:21.747Z,3.07
2018-08-31T02:24:48.942Z,2.70
2018-08-31T02:27:16.118Z,2.93
2018-08-31T02:29:43.274Z,3.47
2018-08-31T02:32:10.469Z,2.67
2018-08-31T02:34:37.630Z,3.10
2018-08-31T02:37:04.843Z,2.60
2018-08-31T02:39:32.019Z,2.97
2018-08-31T02:41:59.201Z,2.80
2018-08-31T02:44:26.363Z,2.67
2018-08-31T02:46:53.546Z,3.37
2018-08-31T02:49:20.710Z,2.70
2018-08-31T02:51:47.911Z,2.63
2018-08-31T02:54:15.078Z,2.53
2018-08-31T02:56:42.248Z,2.77
2018-08-31T02:59:09.434Z,2.63
2018-08-31T03:01:36.590Z,2.90
2018-08-31T03:04:03.927Z,2.90
2018-08-31T03:06:31.098Z,2.63
2018-08-31T03:08:58.288Z,3.00
2018-08-31T03:11:25.549Z,2.10
2018-08-31T03:13:52.682Z,2.90
2018-08-31T03:16:19.846Z,3.63
2018-08-31T03:18:47.022Z,2.73
2018-08-31T03:21:14.263Z,2.43
2018-08-31T03:23:41.396Z,3.20
2018-08-31T03:26:08.563Z,2.30
2018-08-31T03:28:35.743Z,3.13
2018-08-31T03:31:02.932Z,3.13
2018-08-31T03:33:30.110Z,2.90
2018-08-31T03:35:57.278Z,2.83
2018-08-31T03:38:24.463Z,3.60
2018-08-31T03:40:51.625Z,3.43
2018-08-31T03:43:18.814Z,2.90
2018-08-31T03:45:45.976Z,2.90
2018-08-31T03:48:13.170Z,3.10
2018-08-31T03:50:40.329Z,3.70
2018-08-31T03:53:07.513Z,2.93
2018-08-31T03:55:34.700Z,3.40
2018-08-31T03:58:01.887Z,3.13
2018-08-31T04:00:29.050Z,3.00
2018-08-31T04:02:56.259Z,3.13
2018-08-31T04:05:23.422Z,3.47
2018-08-31T04:07:50.594Z,3.23
2018-08-31T04:10:17.772Z,3.07
2018-08-31T04:12:44.960Z,3.40
2018-08-31T04:15:12.189Z,3.53
2018-08-31T04:17:39.330Z,3.57
2018-08-31T04:20:07.010Z,3.67
2018-08-31T04:22:34.205Z,3.33
2018-08-31T04:25:01.410Z,3.40
2018-08-31T04:27:28.589Z,3.37
2018-08-31T04:29:55.783Z,3.20
2018-08-31T04:32:22.938Z,3.00
2018-08-31T04:34:50.126Z,2.77
2018-08-31T04:37:17.374Z,2.97
2018-08-31T04:39:44.589Z,3.70
2018-08-31T04:42:11.752Z,3.07
2018-08-31T04:44:38.930Z,3.70
2018-08-31T04:47:06.143Z,3.70
2018-08-31T04:49:33.334Z,3.67
2018-08-31T04:52:00.511Z,3.47
2018-08-31T04:54:27.693Z,3.87
2018-08-31T04:56:54.858Z,3.77
2018-08-31T04:59:22.059Z,4.00
2018-08-31T05:01:49.228Z,3.27
2018-08-31T05:04:16.483Z,3.80
2018-08-31T05:06:43.664Z,3.37
2018-08-31T05:09:11.886Z,3.80
2018-08-31T05:11:39.053Z,3.50
2018-08-31T05:14:06.400Z,4.10
2018-08-31T05:16:33.580Z,4.07
2018-08-31T05:19:00.788Z,3.43
2018-08-31T05:21:28.166Z,4.23
2018-08-31T05:23:55.519Z,3.20
2018-08-31T05:26:22.772Z,3.73
2018-08-31T05:28:49.979Z,3.90
2018-08-31T05:31:17.137Z,4.20
2018-08-31T05:33:44.350Z,3.43
2018-08-31T05:36:11.518Z,2.90
2018-08-31T05:38:38.730Z,3.50
2018-08-31T05:41:05.886Z,3.83
2018-08-31T05:43:33.054Z,3.70
2018-08-31T05:46:00.250Z,3.77
2018-08-31T05:48:27.492Z,3.80
2018-08-31T05:50:54.619Z,3.33
2018-08-31T05:53:21.819Z,3.60
2018-08-31T05:55:49.018Z,3.70
2018-08-31T05:58:16.203Z,4.27
2018-08-31T06:00:43.414Z,4.63
2018-08-31T06:03:10.602Z,4.53
2018-08-31T06:05:37.845Z,4.10
2018-08-31T06:08:05.021Z,4.23
2018-08-31T06:10:32.280Z,4.60
2018-08-31T06:12:59.515Z,4.20
2018-08-31T06:15:26.765Z,4.60
2018-08-31T06:17:53.920Z,4.50
2018-08-31T06:20:21.097Z,4.23
2018-08-31T06:22:48.319Z,4.63
2018-08-31T06:25:15.504Z,4.73
2018-08-31T06:27:42.895Z,4.43
2018-08-31T06:30:10.093Z,4.87
2018-08-31T06:32:37.332Z,5.37
2018-08-31T06:35:04.543Z,4.60
2018-08-31T06:37:31.746Z,4.40
2018-08-31T06:39:58.920Z,4.70
2018-08-31T06:42:26.077Z,3.93
2018-08-31T06:44:53.288Z,4.60
2018-08-31T06:47:20.475Z,4.40
2018-08-31T06:49:47.641Z,5.17
2018-08-31T06:52:14.851Z,5.03
2018-08-31T06:54:42.080Z,4.50
2018-08-31T06:57:09.264Z,4.60
2018-08-31T06:59:36.433Z,4.30
2018-08-31T07:02:03.664Z,4.27
2018-08-31T07:04:30.890Z,5.20
2018-08-31T07:06:58.106Z,5.60
2018-08-31T07:09:25.279Z,5.00
2018-08-31T07:11:52.477Z,5.20
2018-08-31T07:14:19.659Z,4.50
2018-08-31T07:16:46.850Z,5.57
2018-08-31T07:19:14.029Z,4.60
2018-08-31T07:21:41.242Z,5.47
2018-08-31T07:24:08.407Z,5.33
2018-08-31T07:26:35.619Z,4.53
2018-08-31T07:29:02.792Z,5.30
2018-08-31T07:31:29.954Z,5.20
2018-08-31T07:33:57.159Z,5.43
2018-08-31T07:36:24.440Z,5.90
2018-08-31T07:38:51.522Z,7.03
2018-08-31T07:41:18.737Z,6.63
2018-08-31T07:43:45.927Z,6.30
2018-08-31T07:46:13.094Z,5.97
2018-08-31T07:48:40.402Z,7.43
2018-08-31T07:51:07.572Z,6.47
2018-08-31T07:53:34.770Z,7.10
2018-08-31T07:56:01.971Z,6.93
2018-08-31T07:58:29.206Z,6.33
2018-08-31T08:00:56.366Z,7.33
2018-08-31T08:03:23.594Z,6.70
2018-08-31T08:05:50.750Z,6.60
2018-08-31T08:08:17.935Z,6.67
2018-08-31T08:10:45.150Z,7.20
2018-08-31T08:13:12.350Z,6.23
2018-08-31T08:15:39.563Z,7.10
2018-08-31T08:18:06.786Z,5.80
2018-08-31T08:20:33.966Z,6.10
2018-08-31T08:23:01.182Z,6.43
2018-08-31T08:25:28.427Z,6.10
2018-08-31T08:27:55.602Z,6.13
2018-08-31T08:30:22.774Z,6.70
2018-08-31T08:32:49.974Z,6.93
2018-08-31T08:35:17.174Z,6.90
2018-08-31T08:37:44.348Z,5.30
2018-08-31T08:40:11.562Z,5.80
2018-08-31T08:42:38.806Z,5.30
2018-08-31T08:45:06.070Z,5.80
2018-08-31T08:47:33.347Z,5.20
2018-08-31T08:50:00.520Z,5.20
2018-08-31T08:52:27.738Z,4.73
2018-08-31T08:54:54.931Z,4.60
2018-08-31T08:57:22.102Z,5.00
2018-08-31T08:59:49.282Z,5.47
2018-08-31T09:02:16.494Z,4.33
2018-08-31T09:04:43.662Z,4.00
2018-08-31T09:07:13.246Z,4.13
2018-08-31T09:09:40.417Z,4.13
2018-08-31T09:12:07.606Z,4.30
2018-08-31T09:14:34.770Z,3.60
2018-08-31T09:17:02.000Z,4.03
2018-08-31T09:19:29.162Z,4.33
2018-08-31T09:21:56.321Z,3.70
2018-08-31T09:24:23.551Z,3.30
2018-08-31T09:26:50.766Z,2.50
2018-08-31T09:29:19.395Z,2.67
2018-08-31T09:31:46.558Z,2.73
2018-08-31T09:34:13.757Z,2.40
2018-08-31T09:36:40.967Z,2.70
2018-08-31T09:39:08.348Z,2.30
2018-08-31T09:41:35.514Z,2.67
2018-08-31T09:44:02.845Z,2.50
2018-08-31T09:46:29.925Z,2.47
2018-08-31T09:48:57.090Z,2.90
2018-08-31T09:51:24.290Z,1.93
2018-08-31T09:53:51.450Z,1.90
2018-08-31T09:56:18.620Z,1.90
2018-08-31T09:58:45.799Z,1.97
2018-08-31T10:01:48.280Z,2.03
2018-08-31T10:04:17.683Z,2.20
2018-08-31T10:06:46.734Z,1.73
2018-08-31T10:09:14.542Z,1.53
2018-08-31T10:11:43.815Z,1.80
2018-08-31T10:14:13.080Z,2.17
2018-08-31T10:16:42.967Z,2.03
2018-08-31T10:19:12.518Z,2.10
2018-08-31T10:21:42.213Z,1.77
2018-08-31T10:24:11.698Z,1.90
2018-08-31T10:26:43.849Z,1.67
2018-08-31T10:29:13.942Z,1.83
2018-08-31T10:31:44.622Z,2.10
2018-08-31T10:34:15.397Z,1.67
2018-08-31T10:36:49.570Z,1.70
2018-08-31T10:39:19.304Z,1.70
2018-08-31T10:41:46.530Z,2.33
2018-08-31T10:44:13.722Z,1.80
2018-08-31T10:46:40.898Z,1.90
2018-08-31T10:49:08.090Z,2.17
2018-08-31T10:51:35.814Z,1.80
2018-08-31T10:54:03.016Z,2.13
2018-08-31T10:56:30.207Z,1.93
2018-08-31T10:58:57.419Z,2.37
2018-08-31T11:01:24.678Z,1.90
2018-08-31T11:03:51.908Z,1.60
2018-08-31T11:06:19.222Z,1.60
2018-08-31T11:08:46.461Z,2.37
2018-08-31T11:11:13.662Z,1.63
2018-08-31T11:13:40.861Z,2.53
2018-08-31T11:16:08.063Z,1.77
2018-08-31T11:18:35.282Z,1.90
2018-08-31T11:21:02.447Z,2.20
2018-08-31T11:23:29.931Z,2.00
2018-08-31T11:26:00.047Z,2.37
2018-08-31T11:28:27.210Z,2.60
2018-08-31T11:30:54.421Z,2.20
2018-08-31T11:33:21.609Z,2.17
2018-08-31T11:35:48.782Z,2.07
2018-08-31T11:38:16.162Z,1.83
2018-08-31T11:40:43.364Z,1.70
2018-08-31T11:43:10.553Z,2.20
2018-08-31T11:45:37.755Z,2.03
2018-08-31T11:48:04.927Z,2.10
2018-08-31T11:50:32.118Z,2.20
2018-08-31T11:52:59.455Z,2.10
2018-08-31T11:55:26.830Z,1.97
2018-08-31T11:57:54.346Z,2.07
2018-08-31T12:00:21.579Z,2.17
2018-08-31T12:02:48.816Z,2.00
2018-08-31T12:05:15.987Z,1.77
2018-08-31T12:07:43.187Z,1.90
2018-08-31T12:10:10.399Z,2.17
2018-08-31T12:12:37.602Z,2.00
2018-08-31T12:15:04.900Z,2.30
2018-08-31T12:17:32.300Z,1.90
2018-08-31T12:19:59.573Z,1.80
2018-08-31T12:22:26.762Z,2.50
2018-08-31T12:24:53.931Z,2.00
2018-08-31T12:27:21.132Z,2.37
2018-08-31T12:29:48.367Z,2.10
2018-08-31T12:32:15.534Z,2.13
2018-08-31T12:34:42.782Z,3.40
2018-08-31T12:37:10.036Z,2.17
2018-08-31T12:39:37.205Z,2.30
2018-08-31T12:42:10.568Z,2.17
2018-08-31T12:44:37.895Z,2.10
2018-08-31T12:47:09.430Z,2.20
2018-08-31T12:49:39.491Z,2.27
2018-08-31T12:52:09.732Z,2.40
2018-08-31T12:54:36.914Z,2.53
2018-08-31T12:57:04.127Z,2.20
2018-08-31T12:59:31.321Z,2.50
2018-08-31T13:01:58.526Z,2.80
2018-08-31T13:04:25.910Z,2.70
2018-08-31T13:06:53.193Z,3.00
2018-08-31T13:09:20.367Z,2.50
2018-08-31T13:11:47.666Z,2.37
2018-08-31T13:14:14.843Z,4.57
2018-08-31T13:16:42.063Z,2.90
2018-08-31T13:19:09.296Z,2.10
2018-08-31T13:21:36.462Z,2.40
2018-08-31T13:24:03.686Z,3.03
2018-08-31T13:26:30.875Z,2.87
2018-08-31T13:28:58.256Z,2.60
2018-08-31T13:31:26.154Z,2.77
2018-08-31T13:33:54.280Z,2.60
2018-08-31T13:36:22.507Z,2.90
2018-08-31T13:38:50.770Z,2.47
2018-08-31T13:41:19.059Z,3.10
2018-08-31T13:43:47.207Z,3.03
2018-08-31T13:46:15.164Z,2.10
2018-08-31T13:48:42.390Z,3.40
2018-08-31T13:51:09.614Z,2.33
2018-08-31T13:53:36.783Z,2.60
2018-08-31T13:56:03.962Z,3.00
2018-08-31T13:58:31.167Z,2.17
2018-08-31T14:00:58.338Z,2.30
2018-08-31T14:03:25.577Z,2.30
2018-08-31T14:05:52.778Z,2.50
2018-08-31T14:08:19.943Z,2.80
2018-08-31T14:10:47.146Z,2.67
2018-08-31T14:13:14.349Z,2.50
2018-08-31T14:15:41.519Z,2.70
2018-08-31T14:18:08.702Z,2.63
2018-08-31T14:20:35.879Z,2.30
2018-08-31T14:23:03.073Z,2.57
2018-08-31T14:25:30.251Z,2.10
2018-08-31T14:27:57.443Z,2.33
2018-08-31T14:30:24.611Z,2.20
2018-08-31T14:32:51.854Z,2.27
2018-08-31T14:35:19.059Z,2.13
2018-08-31T14:37:46.255Z,1.90
2018-08-31T14:40:13.444Z,2.60
2018-08-31T14:42:40.635Z,2.30
2018-08-31T14:45:08.082Z,2.43
2018-08-31T14:47:35.282Z,2.50
2018-08-31T14:50:02.522Z,2.20
2018-08-31T14:52:29.666Z,2.27
2018-08-31T14:54:56.830Z,2.70
2018-08-31T14:57:24.100Z,2.40
2018-08-31T14:59:51.244Z,3.60
2018-08-31T15:02:18.435Z,3.17
2018-08-31T15:04:45.648Z,2.87
2018-08-31T15:07:12.821Z,3.60
2018-08-31T15:09:39.998Z,2.53
2018-08-31T15:12:07.167Z,2.30
2018-08-31T15:14:34.356Z,2.50
2018-08-31T15:17:01.522Z,2.37
2018-08-31T15:19:28.698Z,2.83
2018-08-31T15:21:55.866Z,2.53
2018-08-31T15:24:23.056Z,2.20
2018-08-31T15:26:50.231Z,2.60
2018-08-31T15:29:18.344Z,2.17
2018-08-31T15:31:45.531Z,2.63
2018-08-31T15:34:12.722Z,1.90
2018-08-31T15:36:39.939Z,2.03
2018-08-31T15:39:07.490Z,2.40
2018-08-31T15:41:34.655Z,2.77
2018-08-31T15:44:01.857Z,2.30
2018-08-31T15:46:29.029Z,2.27
2018-08-31T15:48:56.209Z,2.43
2018-08-31T15:51:23.380Z,2.37
2018-08-31T15:53:50.572Z,2.77
2018-08-31T15:56:17.730Z,2.17
2018-08-31T15:58:44.925Z,2.20
2018-08-31T16:01:12.102Z,2.20
2018-08-31T16:03:39.320Z,2.10
2018-08-31T16:06:06.500Z,1.93
2018-08-31T16:08:33.692Z,1.77
2018-08-31T16:11:00.874Z,1.90
2018-08-31T16:13:28.070Z,2.10
2018-08-31T16:15:55.238Z,2.30
2018-08-31T16:18:22.474Z,2.40
2018-08-31T16:20:49.748Z,1.97
2018-08-31T16:23:47.954Z,2.20
2018-08-31T16:26:15.167Z,1.97
2018-08-31T16:28:42.450Z,2.10
2018-08-31T16:31:09.599Z,1.83
2018-08-31T16:33:36.782Z,2.00
2018-08-31T16:36:03.941Z,1.80
2018-08-31T16:38:31.397Z,2.37
2018-08-31T16:40:58.582Z,2.10
2018-08-31T16:43:25.794Z,2.20
2018-08-31T16:45:52.972Z,1.87
2018-08-31T16:48:20.162Z,2.03
2018-08-31T16:50:47.320Z,2.00
2018-08-31T16:53:14.495Z,2.10
2018-08-31T16:55:41.675Z,2.60
2018-08-31T16:58:08.869Z,1.93
2018-08-31T17:00:36.085Z,2.07
2018-08-31T17:03:03.259Z,2.10
2018-08-31T17:05:30.462Z,2.07
2018-08-31T17:07:57.623Z,2.00
2018-08-31T17:10:24.802Z,2.20
2018-08-31T17:12:51.971Z,2.00
2018-08-31T17:15:19.159Z,1.80
2018-08-31T17:17:46.324Z,1.97
2018-08-31T17:20:13.507Z,1.97
2018-08-31T17:22:40.682Z,1.70
2018-08-31T17:25:08.046Z,2.07
2018-08-31T17:27:40.834Z,1.63
2018-08-31T17:30:13.675Z,1.70
2018-08-31T17:32:46.280Z,2.00
2018-08-31T17:35:18.994Z,2.10
2018-08-31T17:37:46.182Z,1.63
2018-08-31T17:40:13.380Z,1.90
2018-08-31T17:42:40.926Z,2.20
2018-08-31T17:45:08.712Z,2.00
2018-08-31T17:47:35.884Z,1.93
2018-08-31T17:50:03.069Z,2.00
2018-08-31T17:52:30.258Z,2.00
2018-08-31T17:54:57.447Z,1.60
2018-08-31T17:57:24.603Z,1.60
2018-08-31T17:59:51.806Z,1.50
2018-08-31T18:02:18.993Z,2.10
2018-08-31T18:04:46.204Z,2.20
2018-08-31T18:07:13.366Z,1.90
2018-08-31T18:09:40.607Z,1.60
2018-08-31T18:12:07.758Z,1.80
2018-08-31T18:14:34.942Z,1.73
2018-08-31T18:17:02.290Z,1.83
2018-08-31T18:19:29.463Z,2.07
2018-08-31T18:21:56.646Z,1.87
2018-08-31T18:24:23.816Z,1.90
2018-08-31T18:26:51.099Z,2.27
2018-08-31T18:29:18.265Z,1.90
2018-08-31T18:31:45.450Z,2.10
2018-08-31T18:34:12.623Z,2.00
2018-08-31T18:36:39.811Z,2.00
2018-08-31T18:39:07.036Z,1.80
2018-08-31T18:41:34.213Z,2.03
2018-08-31T18:44:01.383Z,1.90
2018-08-31T18:46:28.626Z,1.90
2018-08-31T18:48:55.776Z,1.70
2018-08-31T18:51:22.953Z,1.90
2018-08-31T18:53:50.125Z,2.30
2018-08-31T18:56:17.314Z,1.80
2018-08-31T18:58:44.516Z,2.03
2018-08-31T19:01:12.356Z,2.30
2018-08-31T19:03:39.563Z,2.33
2018-08-31T19:06:08.259Z,1.83
2018-08-31T19:08:35.465Z,1.60
2018-08-31T19:11:02.639Z,2.37
2018-08-31T19:13:29.816Z,2.37
2018-08-31T19:15:57.006Z,2.00
2018-08-31T19:18:24.177Z,2.00
2018-08-31T19:20:51.369Z,2.40
2018-08-31T19:23:18.529Z,2.00
2018-08-31T19:25:45.726Z,1.90
2018-08-31T19:28:12.888Z,2.57
2018-08-31T19:30:40.073Z,2.57
2018-08-31T19:33:07.239Z,1.90
2018-08-31T19:35:34.435Z,1.93
2018-08-31T19:38:01.602Z,1.87
2018-08-31T19:40:28.769Z,2.00
2018-08-31T19:42:55.953Z,1.90
2018-08-31T19:45:23.127Z,2.17
2018-08-31T19:47:50.310Z,2.20
2018-08-31T19:50:17.585Z,2.20
2018-08-31T19:52:44.768Z,2.30
2018-08-31T19:55:11.933Z,2.17
2018-08-31T19:57:39.125Z,2.37
2018-08-31T20:00:06.389Z,1.80
2018-08-31T20:02:33.596Z,2.37
2018-08-31T20:05:00.790Z,1.90
2018-08-31T20:07:27.979Z,2.20
2018-08-31T20:09:55.139Z,2.40
2018-08-31T20:12:22.326Z,2.30
2018-08-31T20:14:49.511Z,2.43
2018-08-31T20:17:16.692Z,2.27
2018-08-31T20:19:43.915Z,2.13
2018-08-31T20:22:12.201Z,2.90
2018-08-31T20:24:39.378Z,2.30
2018-08-31T20:27:06.584Z,2.40
2018-08-31T20:29:33.753Z,2.23
2018-08-31T20:32:00.947Z,2.60
2018-08-31T20:34:28.106Z,2.40
2018-08-31T20:36:55.305Z,1.93
2018-08-31T20:39:22.462Z,2.40
2018-08-31T20:41:49.652Z,2.00
2018-08-31T20:44:16.815Z,2.20
2018-08-31T20:46:43.984Z,2.27
2018-08-31T20:49:11.185Z,2.13
2018-08-31T20:51:38.352Z,2.30
2018-08-31T20:54:05.591Z,2.10
2018-08-31T20:56:32.714Z,2.33
2018-08-31T20:58:59.909Z,2.30
2018-08-31T21:01:27.068Z,2.00
2018-08-31T21:03:54.287Z,2.20
2018-08-31T21:06:21.483Z,2.87
2018-08-31T21:08:48.690Z,2.43
2018-08-31T21:11:15.899Z,2.50
2018-08-31T21:13:43.123Z,2.60
2018-08-31T21:16:10.289Z,2.00
2018-08-31T21:18:37.467Z,2.20
2018-08-31T21:21:04.642Z,2.33
2018-08-31T21:23:31.825Z,2.20
2018-08-31T21:25:59.002Z,2.10
2018-08-31T21:28:27.018Z,2.40
2018-08-31T21:30:54.194Z,2.27
2018-08-31T21:33:21.404Z,2.23
2018-08-31T21:35:48.578Z,1.70
2018-08-31T21:38:15.759Z,2.27
2018-08-31T21:40:42.959Z,2.23
2018-08-31T21:43:10.167Z,2.00
2018-08-31T21:45:37.330Z,1.90
2018-08-31T21:48:04.550Z,2.40
2018-08-31T21:50:32.122Z,2.13
2018-08-31T21:52:59.307Z,2.00
2018-08-31T21:55:26.588Z,2.40
2018-08-31T21:57:53.670Z,2.20
2018-08-31T22:00:21.715Z,2.37
2018-08-31T22:02:49.880Z,2.37
2018-08-31T22:05:17.097Z,2.10
2018-08-31T22:07:44.358Z,2.40
2018-08-31T22:10:11.537Z,2.33
2018-08-31T22:12:38.702Z,2.00
2018-08-31T22:15:10.846Z,2.30
2018-08-31T22:17:38.002Z,2.40
2018-08-31T22:20:05.210Z,2.47
2018-08-31T22:22:32.375Z,2.07
2018-08-31T22:24:59.559Z,2.20
2018-08-31T22:27:26.727Z,2.10
2018-08-31T22:29:53.918Z,2.27
2018-08-31T22:32:21.072Z,2.37
2018-08-31T22:34:48.268Z,2.27
2018-08-31T22:37:15.427Z,2.20
2018-08-31T22:39:42.610Z,2.17
2018-08-31T22:42:09.814Z,2.00
2018-08-31T22:44:36.994Z,2.27
2018-08-31T22:47:04.630Z,1.90
2018-08-31T22:49:31.815Z,2.17
2018-08-31T22:51:58.976Z,1.70
2018-08-31T22:54:26.149Z,1.87
2018-08-31T22:56:53.333Z,2.20
2018-08-31T22:59:20.514Z,2.37
2018-08-31T23:01:47.675Z,2.20
2018-08-31T23:04:14.882Z,2.33
2018-08-31T23:06:42.052Z,2.47
2018-08-31T23:09:09.233Z,1.80
2018-08-31T23:11:36.402Z,2.30
2018-08-31T23:14:03.595Z,2.90
2018-08-31T23:16:30.774Z,1.90
2018-08-31T23:18:57.975Z,1.97
2018-08-31T23:21:25.151Z,2.00
2018-08-31T23:23:52.340Z,1.90
2018-08-31T23:26:19.534Z,2.20
2018-08-31T23:28:46.696Z,2.10
2018-08-31T23:31:13.866Z,2.10
2018-08-31T23:33:41.051Z,2.10
2018-08-31T23:36:08.219Z,2.10
2018-08-31T23:38:35.402Z,1.93
2018-08-31T23:41:02.575Z,2.00
2018-08-31T23:43:29.745Z,1.93
2018-08-31T23:45:56.923Z,1.90
2018-08-31T23:48:24.103Z,1.90
2018-08-31T23:50:51.280Z,1.77
2018-08-31T23:53:18.462Z,1.93
2018-08-31T23:55:45.663Z,2.00
2018-08-31T23:58:12.830Z,2.63
